Arcata, CA (95518)

9:12 PM PST on February 13, 2016 (GMT -0800)
APRSWXNET | | Change Station
CLOSE
Current Station
Personal Weather Station
Location: Arcata, CA
Elevation: 5 ft
Nearby Weather Stations

Elev 5 ft 40.86 °N, 124.09 °W | Updated 24 minutes ago

Overcast
Overcast
49 °F
Feels Like 49 °F
N
1
Wind Variable Wind from NNE
Gusts 3.0 mph

Today
High -- | Low -- °F
--% Chance of Precip.
Yesterday
High -- | Low -- °F
Precip. -- in
Pressure 30.44 in
Visibility 8.0 miles
Clouds Few 300 ft
Mostly Cloudy 4300 ft
Windchill 49 °F
Dew Point 47 °F
Humidity 93%
Rainfall in
Snow Depth Not available.
7:13 AM 5:48 PM
Waxing Crescent, 38% visible
METAR KACV 140453Z AUTO 10003KT 8SM FEW003 BKN043 10/09 A3042 RMK AO2 SLP307 T01000089
Pressure 30.44 in
Visibility 8.0 miles
Clouds Few 300 ft
Mostly Cloudy 4300 ft
Windchill 49 °F
Dew Point 47 °F
Humidity 93%
Rainfall in
Snow Depth Not available.
7:13 AM 5:48 PM
Waxing Crescent, 38% visible
METAR KACV 140453Z AUTO 10003KT 8SM FEW003 BKN043 10/09 A3042 RMK AO2 SLP307 T01000089

10-Day Weather Forecast

Almanac

Astronomy

Feb. 13, 2016 Rise Set
Actual Time
Civil Twilight
Nautical Twilight
Astronomical Twilight
Moon
Length of Visible Light
Length of Day
Tomorrow will be .
, % of the Moon is Illuminated

Today's Extremes

State Highs State Lows

Community

WunderPhotos

Upload Photos

1,892,748 photos uploaded!

WunderBlog® & News

Nearby

Air Quality

  Air Quality AQ Index Pollutant
Not available.

Snow Depth

Station Depth Elevation

Earthquake Activity

City Distance Mag. Time & Date
Minimum magnitude displayed is 2.5.

Coastal Water Temperatures

Place Temperature

Stations

Nearby Weather Stations

Station Location Temp. Windchill Dew Point Humidity Wind Precip. Elev Updated Type
                   

Watches & Warnings

There are currently no watches in effect.